Time;durP1;ratioP1;P1;durP2;ratioP2;P2;SDS_P1;SDS_P2;PMS_P1;PMS_P2;Temp;Humidity;BMP_temperature;BMP_pressure;BME280_temperature;BME280_humidity;BME280_pressure;Samples;Min_cycle;Max_cycle;Signal;HPM_P1;HPM_P2
2023/08/26 00:00:16;;;;;;;4.85;3.30;;;25.40;99.90;;;;;;10076612;28;20025;-69
2023/08/26 00:05:07;;;;;;;4.85;3.60;;;25.30;99.90;;;;;;10086020;28;20132;-70
2023/08/26 00:09:58;;;;;;;4.70;3.00;;;25.40;99.90;;;;;;10101922;28;20387;-69
2023/08/26 00:14:48;;;;;;;4.18;2.72;;;25.40;99.90;;;;;;10101550;28;20578;-70
2023/08/26 00:19:39;;;;;;;6.90;2.92;;;25.40;99.90;;;;;;10101043;28;20035;-71
2023/08/26 00:24:30;;;;;;;5.38;4.28;;;25.20;99.90;;;;;;10101616;28;20123;-71
2023/08/26 00:29:20;;;;;;;4.45;3.50;;;25.40;99.90;;;;;;10101970;28;20068;-71
2023/08/26 00:34:11;;;;;;;4.57;3.50;;;25.20;99.90;;;;;;10089551;28;20028;-69
2023/08/26 00:39:02;;;;;;;6.22;4.00;;;25.20;99.90;;;;;;10086239;28;20082;-69
2023/08/26 00:43:53;;;;;;;6.68;3.47;;;25.10;99.90;;;;;;10095592;28;20048;-68
2023/08/26 00:48:43;;;;;;;7.30;3.17;;;25.30;99.90;;;;;;10098423;28;20032;-68
2023/08/26 00:53:34;;;;;;;4.38;3.00;;;25.20;99.90;;;;;;10100013;28;20190;-69
2023/08/26 00:58:26;;;;;;;5.13;3.47;;;25.10;99.90;;;;;;10099829;28;20033;-70
2023/08/26 01:03:17;;;;;;;5.97;3.00;;;25.20;99.90;;;;;;10099607;28;20036;-69
2023/08/26 01:08:08;;;;;;;5.32;2.70;;;25.20;99.90;;;;;;10106499;28;20087;-69
2023/08/26 01:13:07;;;;;;;6.15;3.45;;;25.10;99.90;;;;;;10098325;28;20131;-69
2023/08/26 01:18:00;;;;;;;5.55;2.95;;;25.10;99.90;;;;;;10096269;28;20093;-69
2023/08/26 01:22:55;;;;;;;5.78;3.15;;;25.20;99.90;;;;;;10081307;28;20051;-70
2023/08/26 01:27:46;;;;;;;5.20;3.38;;;25.10;99.90;;;;;;10067175;28;20392;-69
2023/08/26 01:32:59;;;;;;;4.45;3.38;;;24.90;99.90;;;;;;10086942;28;20071;-70
2023/08/26 01:37:52;;;;;;;4.00;3.20;;;25.10;99.90;;;;;;10096280;28;20075;-70
2023/08/26 01:42:44;;;;;;;5.13;2.72;;;25.10;99.90;;;;;;10089049;28;20404;-68
2023/08/26 01:47:34;;;;;;;5.15;3.20;;;25.00;99.90;;;;;;10094819;28;20253;-68
2023/08/26 01:52:26;;;;;;;6.32;3.42;;;25.00;99.90;;;;;;10099065;28;20287;-71
2023/08/26 01:57:16;;;;;;;5.75;2.70;;;25.10;99.90;;;;;;10079630;28;20372;-70
2023/08/26 02:02:07;;;;;;;7.43;4.05;;;24.90;99.90;;;;;;10098159;28;20033;-68
2023/08/26 02:06:58;;;;;;;7.47;2.80;;;25.00;99.90;;;;;;10098715;28;20036;-69
2023/08/26 02:11:48;;;;;;;6.10;2.70;;;24.90;99.90;;;;;;10095948;28;20045;-69
2023/08/26 02:16:39;;;;;;;5.10;2.22;;;25.00;99.90;;;;;;10097683;28;20032;-71
2023/08/26 02:21:29;;;;;;;3.97;2.42;;;24.90;99.90;;;;;;10097839;28;20324;-70
2023/08/26 02:26:21;;;;;;;3.88;2.08;;;24.80;99.90;;;;;;10078976;28;20490;-70
2023/08/26 02:31:12;;;;;;;2.85;2.17;;;24.80;99.90;;;;;;10082717;28;20016;-69
2023/08/26 02:36:02;;;;;;;4.90;2.53;;;24.80;99.90;;;;;;10103064;28;20561;-70
2023/08/26 02:40:54;;;;;;;4.57;2.05;;;24.60;99.90;;;;;;10096821;28;20033;-70
2023/08/26 02:45:48;;;;;;;4.70;2.17;;;24.60;99.90;;;;;;10091491;28;20021;-70
2023/08/26 02:50:39;;;;;;;2.78;1.73;;;24.50;99.90;;;;;;10078151;28;20037;-70
2023/08/26 02:55:30;;;;;;;5.45;2.85;;;24.40;99.90;;;;;;10097351;28;20489;-70
2023/08/26 03:00:20;;;;;;;2.95;2.28;;;24.40;99.90;;;;;;10096378;28;20033;-69
2023/08/26 03:05:11;;;;;;;4.63;2.38;;;24.40;99.90;;;;;;10090188;28;20037;-70
2023/08/26 03:10:02;;;;;;;5.15;2.33;;;24.40;99.90;;;;;;10083094;28;20070;-70
2023/08/26 03:14:53;;;;;;;4.10;2.40;;;24.30;99.90;;;;;;10092819;28;20057;-70
2023/08/26 03:19:44;;;;;;;5.07;2.83;;;24.30;99.90;;;;;;10093775;28;20116;-70
2023/08/26 03:24:38;;;;;;;5.50;2.42;;;24.30;99.90;;;;;;10077705;28;20052;-70
2023/08/26 03:29:28;;;;;;;1.97;1.70;;;24.20;99.90;;;;;;10095379;28;20483;-70
2023/08/26 03:34:19;;;;;;;4.65;2.00;;;24.10;99.90;;;;;;10093878;28;20111;-70
2023/08/26 03:39:09;;;;;;;4.47;2.20;;;24.10;99.90;;;;;;10101143;28;20029;-69
2023/08/26 03:44:04;;;;;;;3.80;1.73;;;24.10;99.90;;;;;;10100981;28;20124;-70
2023/08/26 03:48:54;;;;;;;3.42;1.67;;;24.10;99.90;;;;;;10102873;28;20413;-69
2023/08/26 03:53:45;;;;;;;4.28;1.83;;;24.20;99.90;;;;;;10103125;28;20044;-70
2023/08/26 03:58:38;;;;;;;6.93;2.10;;;24.10;99.90;;;;;;10068387;28;20056;-69
2023/08/26 04:03:28;;;;;;;3.80;2.42;;;24.10;99.90;;;;;;10103320;28;20063;-70
2023/08/26 04:08:19;;;;;;;3.15;2.20;;;24.00;99.90;;;;;;10101879;28;20017;-69
2023/08/26 04:13:22;;;;;;;5.57;3.10;;;24.00;99.90;;;;;;10102219;28;20049;-69
2023/08/26 04:18:13;;;;;;;3.97;2.53;;;24.00;99.90;;;;;;10101231;28;20513;-69
2023/08/26 04:23:04;;;;;;;6.60;2.67;;;23.90;99.90;;;;;;10084109;28;20121;-70
2023/08/26 04:27:54;;;;;;;4.25;2.08;;;23.90;99.90;;;;;;10101797;28;20510;-69
2023/08/26 04:32:47;;;;;;;3.17;1.70;;;23.90;99.90;;;;;;10103595;28;20033;-69
2023/08/26 04:37:38;;;;;;;5.38;2.67;;;23.80;99.90;;;;;;10107944;28;20103;-70
2023/08/26 04:42:28;;;;;;;4.20;2.10;;;23.50;99.90;;;;;;10095703;28;20178;-70
2023/08/26 04:47:22;;;;;;;2.65;1.90;;;23.40;99.90;;;;;;10101201;28;20028;-69
2023/08/26 04:52:12;;;;;;;3.10;1.80;;;23.30;99.90;;;;;;10098326;28;20103;-69
2023/08/26 04:57:04;;;;;;;2.83;2.00;;;23.30;99.90;;;;;;10107687;28;20092;-70
2023/08/26 05:01:54;;;;;;;4.00;1.83;;;23.30;99.90;;;;;;10093579;28;20045;-70
2023/08/26 05:06:45;;;;;;;4.03;2.22;;;23.10;99.90;;;;;;10090272;28;20437;-69
2023/08/26 05:11:36;;;;;;;3.28;1.50;;;23.00;99.90;;;;;;10096973;28;20107;-70
2023/08/26 05:16:27;;;;;;;3.45;2.20;;;23.10;99.90;;;;;;10079204;28;20025;-70
2023/08/26 05:21:19;;;;;;;4.97;2.35;;;23.00;99.90;;;;;;10095990;28;20047;-70
2023/08/26 05:26:10;;;;;;;2.85;1.52;;;23.00;99.90;;;;;;10080073;28;20025;-69
2023/08/26 05:31:01;;;;;;;4.05;1.95;;;23.00;99.90;;;;;;10083298;28;20044;-71
2023/08/26 05:35:52;;;;;;;2.72;1.83;;;22.90;99.90;;;;;;10105937;28;20467;-71
2023/08/26 05:40:43;;;;;;;3.08;1.95;;;22.80;99.90;;;;;;10096996;28;20051;-71
2023/08/26 05:45:34;;;;;;;3.55;1.70;;;22.90;99.90;;;;;;10090198;28;20029;-70
2023/08/26 05:50:25;;;;;;;5.93;1.60;;;23.00;99.90;;;;;;10096756;28;20032;-70
2023/08/26 05:55:16;;;;;;;2.75;1.77;;;22.90;99.90;;;;;;10096751;28;20044;-70
2023/08/26 06:00:07;;;;;;;3.72;1.40;;;22.90;99.90;;;;;;10093901;28;20021;-68
2023/08/26 06:04:59;;;;;;;2.85;1.67;;;23.00;99.90;;;;;;10093379;28;20576;-69
2023/08/26 06:09:50;;;;;;;2.25;1.60;;;23.00;99.90;;;;;;10095560;28;20027;-69
2023/08/26 06:14:40;;;;;;;2.45;1.20;;;23.00;99.90;;;;;;10046608;28;1461709;-70
2023/08/26 06:19:31;;;;;;;2.65;1.50;;;23.00;99.90;;;;;;10096638;28;20399;-69
2023/08/26 06:24:22;;;;;;;13.05;2.65;;;23.00;99.90;;;;;;10097011;28;20056;-69
2023/08/26 06:29:16;;;;;;;2.70;1.15;;;22.90;99.90;;;;;;10097503;28;20555;-68
2023/08/26 06:34:06;;;;;;;3.70;1.07;;;22.70;99.90;;;;;;10106815;28;20021;-69
2023/08/26 06:38:57;;;;;;;6.22;1.25;;;22.60;99.90;;;;;;10083248;28;20282;-72
2023/08/26 06:43:47;;;;;;;2.13;1.35;;;22.70;99.90;;;;;;10090810;28;20051;-70
2023/08/26 06:48:41;;;;;;;4.93;1.40;;;22.50;99.90;;;;;;10078673;28;20052;-68
2023/08/26 06:53:33;;;;;;;2.28;0.95;;;22.60;99.90;;;;;;10096397;28;20040;-69
2023/08/26 06:58:23;;;;;;;1.95;1.30;;;22.50;99.90;;;;;;10077676;28;20043;-69
2023/08/26 07:03:14;;;;;;;1.52;1.05;;;22.60;99.90;;;;;;10096110;28;20029;-70
2023/08/26 07:08:05;;;;;;;1.83;1.40;;;22.70;99.90;;;;;;10096716;28;20102;-70
2023/08/26 07:12:55;;;;;;;2.08;0.93;;;22.80;99.90;;;;;;10080342;28;20092;-69
2023/08/26 07:17:46;;;;;;;2.38;1.20;;;22.70;99.90;;;;;;10098879;28;20055;-69
2023/08/26 07:22:37;;;;;;;4.07;1.35;;;22.60;99.90;;;;;;10095950;28;20040;-69
2023/08/26 07:27:28;;;;;;;3.58;1.95;;;22.70;99.90;;;;;;10077410;28;20025;-69
2023/08/26 07:32:19;;;;;;;3.42;1.45;;;22.70;99.90;;;;;;10087707;28;20132;-70
2023/08/26 07:37:09;;;;;;;2.00;1.23;;;22.90;99.90;;;;;;10085593;28;20507;-69
2023/08/26 07:42:00;;;;;;;3.03;1.58;;;22.90;99.90;;;;;;10089675;28;20037;-69
2023/08/26 07:46:51;;;;;;;1.48;1.10;;;22.90;99.90;;;;;;10094571;28;20342;-69
2023/08/26 07:51:42;;;;;;;3.75;1.08;;;22.70;99.90;;;;;;10085910;28;20514;-70
2023/08/26 07:56:34;;;;;;;2.47;1.00;;;22.70;99.90;;;;;;10076227;28;20396;-70
2023/08/26 08:01:24;;;;;;;3.60;1.00;;;22.80;99.90;;;;;;10094627;28;20036;-71
2023/08/26 08:06:15;;;;;;;3.22;2.20;;;22.70;99.90;;;;;;10094071;28;20021;-70
2023/08/26 08:11:06;;;;;;;7.75;1.70;;;22.90;99.90;;;;;;10076649;28;20454;-69
2023/08/26 08:15:56;;;;;;;2.85;1.50;;;23.00;99.90;;;;;;10093844;28;20029;-69
2023/08/26 08:20:47;;;;;;;3.28;1.88;;;22.90;99.90;;;;;;10093748;28;20040;-69
2023/08/26 08:25:38;;;;;;;1.58;1.00;;;23.00;99.90;;;;;;10100972;28;20039;-69
2023/08/26 08:30:29;;;;;;;2.53;1.20;;;23.00;99.90;;;;;;10100799;28;20043;-71
2023/08/26 08:35:20;;;;;;;2.65;0.95;;;23.10;99.90;;;;;;10113736;28;20052;-70
2023/08/26 08:40:11;;;;;;;3.08;0.98;;;23.20;99.90;;;;;;10082767;28;20029;-70
2023/08/26 08:45:05;;;;;;;1.13;0.73;;;23.10;99.90;;;;;;10095281;28;20041;-69
2023/08/26 08:49:57;;;;;;;1.53;0.90;;;23.10;99.90;;;;;;10100119;28;20499;-70
2023/08/26 08:54:48;;;;;;;2.42;0.75;;;23.20;99.90;;;;;;10100269;28;20028;-70
2023/08/26 08:59:40;;;;;;;2.58;1.60;;;23.30;99.90;;;;;;10100009;28;20032;-69
2023/08/26 09:04:32;;;;;;;0.95;0.80;;;23.30;99.90;;;;;;10082017;28;20040;-70
2023/08/26 09:09:22;;;;;;;2.58;0.88;;;23.20;99.90;;;;;;10082478;28;20048;-70
2023/08/26 09:14:13;;;;;;;2.45;1.40;;;23.20;99.90;;;;;;10090969;28;20052;-69
2023/08/26 09:19:12;;;;;;;1.67;1.10;;;23.20;99.90;;;;;;10099661;28;20045;-69
2023/08/26 09:24:03;;;;;;;1.58;0.90;;;23.30;99.90;;;;;;10099436;28;20063;-69
2023/08/26 09:28:54;;;;;;;1.60;1.30;;;23.20;99.90;;;;;;10088997;28;20024;-70
2023/08/26 09:33:59;;;;;;;2.92;1.52;;;23.10;99.90;;;;;;10073018;28;20043;-70
2023/08/26 09:38:50;;;;;;;2.00;1.27;;;23.20;99.90;;;;;;10088759;28;20421;-71
2023/08/26 09:43:44;;;;;;;1.42;1.30;;;23.20;99.90;;;;;;10093153;28;20136;-70
2023/08/26 09:48:35;;;;;;;2.93;0.93;;;23.20;99.90;;;;;;10092765;28;20032;-70
2023/08/26 09:53:29;;;;;;;2.15;1.27;;;23.20;99.90;;;;;;10097925;28;20115;-71
2023/08/26 09:58:20;;;;;;;2.42;1.00;;;23.20;99.90;;;;;;10096871;28;20017;-70
2023/08/26 10:03:12;;;;;;;1.60;0.98;;;23.20;99.90;;;;;;10097524;28;20119;-70
2023/08/26 10:08:08;;;;;;;1.63;0.80;;;23.30;99.90;;;;;;10097433;28;20426;-71
2023/08/26 10:13:08;;;;;;;3.10;1.63;;;23.30;99.90;;;;;;10097404;28;20132;-70
2023/08/26 10:18:11;;;;;;;3.17;1.30;;;23.20;99.90;;;;;;10093940;28;20082;-69
2023/08/26 10:23:03;;;;;;;2.97;1.73;;;23.10;99.90;;;;;;10095727;28;20029;-70
2023/08/26 10:27:54;;;;;;;2.08;1.30;;;23.20;99.90;;;;;;10096611;28;20033;-70
2023/08/26 10:32:46;;;;;;;2.72;1.52;;;23.20;99.90;;;;;;10103683;28;20016;-70
2023/08/26 10:37:36;;;;;;;1.48;1.05;;;23.20;99.90;;;;;;10098543;28;20025;-70
2023/08/26 10:42:27;;;;;;;3.60;1.15;;;23.20;99.90;;;;;;10095965;28;20036;-70
2023/08/26 10:47:38;;;;;;;2.28;0.95;;;23.20;99.90;;;;;;10095857;28;20033;-69
2023/08/26 10:52:33;;;;;;;1.30;1.13;;;23.10;99.90;;;;;;10087418;28;20078;-69
2023/08/26 10:57:24;;;;;;;1.98;1.20;;;23.10;99.90;;;;;;10095427;28;20031;-70
2023/08/26 11:02:17;;;;;;;3.90;1.30;;;23.20;99.90;;;;;;10078433;28;20038;-70
2023/08/26 11:07:26;;;;;;;2.33;1.50;;;23.30;99.90;;;;;;10067280;28;20594;-71
2023/08/26 11:12:27;;;;;;;1.58;1.35;;;23.30;99.90;;;;;;10087053;28;20084;-71
2023/08/26 11:17:18;;;;;;;2.15;1.35;;;23.40;99.90;;;;;;10093271;28;20310;-71
2023/08/26 11:22:09;;;;;;;2.47;1.30;;;23.30;99.90;;;;;;10084667;28;20033;-69
2023/08/26 11:27:01;;;;;;;3.63;2.28;;;23.30;99.90;;;;;;10077083;28;20025;-69
2023/08/26 11:31:52;;;;;;;3.92;1.45;;;23.20;99.90;;;;;;10093018;28;20035;-71
2023/08/26 11:36:43;;;;;;;1.58;1.17;;;23.30;99.90;;;;;;10100924;28;20029;-70
2023/08/26 11:41:33;;;;;;;4.90;2.78;;;23.30;99.90;;;;;;10092271;28;20136;-71
2023/08/26 11:46:25;;;;;;;2.33;1.30;;;23.40;99.90;;;;;;10092645;28;20151;-72
2023/08/26 11:51:16;;;;;;;1.98;1.27;;;23.40;99.90;;;;;;10095391;28;20021;-72
2023/08/26 11:56:07;;;;;;;3.63;2.30;;;23.40;99.90;;;;;;10094361;28;20021;-70
2023/08/26 12:00:58;;;;;;;1.27;1.05;;;23.40;99.90;;;;;;10104730;28;20107;-70
2023/08/26 12:05:52;;;;;;;2.92;1.35;;;23.30;99.90;;;;;;10103312;28;20033;-71
2023/08/26 12:10:50;;;;;;;4.88;1.65;;;23.20;99.90;;;;;;10084140;28;20029;-70
2023/08/26 12:15:42;;;;;;;5.55;1.30;;;23.30;99.90;;;;;;10102986;28;20116;-70
2023/08/26 12:20:34;;;;;;;3.67;1.88;;;23.30;99.90;;;;;;10101959;28;20020;-71
2023/08/26 12:25:33;;;;;;;2.20;1.35;;;23.30;99.90;;;;;;10101609;28;20497;-70
2023/08/26 12:30:24;;;;;;;4.47;1.55;;;23.40;99.90;;;;;;10100739;28;20017;-69
2023/08/26 12:35:14;;;;;;;2.00;1.23;;;23.40;99.90;;;;;;10108710;28;20033;-69
2023/08/26 12:40:06;;;;;;;2.55;1.60;;;23.40;99.90;;;;;;10082937;28;20018;-69
2023/08/26 12:44:56;;;;;;;2.45;1.58;;;23.40;99.90;;;;;;10089796;28;20526;-71
2023/08/26 12:49:47;;;;;;;3.65;1.92;;;23.40;99.90;;;;;;10083031;28;20027;-69
2023/08/26 12:54:38;;;;;;;2.67;1.75;;;23.40;99.90;;;;;;10102313;28;20033;-69
2023/08/26 12:59:28;;;;;;;4.22;2.13;;;23.30;99.90;;;;;;10081679;28;20449;-69
2023/08/26 13:04:19;;;;;;;4.38;1.58;;;23.40;99.90;;;;;;10100051;28;20560;-70
2023/08/26 13:09:12;;;;;;;3.28;1.42;;;23.40;99.90;;;;;;10101456;28;20542;-70
2023/08/26 13:14:03;;;;;;;5.22;1.70;;;23.40;99.90;;;;;;10099724;28;20041;-70
2023/08/26 13:18:54;;;;;;;3.53;2.25;;;23.30;99.90;;;;;;10081623;28;20024;-69
2023/08/26 13:23:46;;;;;;;2.78;1.38;;;23.30;99.90;;;;;;10099436;28;20037;-71
2023/08/26 13:28:38;;;;;;;3.83;1.17;;;23.40;99.90;;;;;;10091276;28;20036;-71
2023/08/26 13:33:29;;;;;;;2.33;1.50;;;23.60;99.90;;;;;;10062805;28;20048;-71
2023/08/26 13:38:20;;;;;;;3.40;1.25;;;23.80;99.90;;;;;;10090189;28;20021;-71
2023/08/26 13:43:10;;;;;;;2.97;1.02;;;24.00;99.90;;;;;;10097586;28;20550;-71
2023/08/26 13:48:02;;;;;;;3.05;1.15;;;24.20;99.90;;;;;;10094838;28;20032;-71
2023/08/26 13:52:52;;;;;;;2.55;1.60;;;24.30;99.90;;;;;;10098859;28;20099;-70
2023/08/26 13:57:43;;;;;;;3.97;1.52;;;24.40;99.90;;;;;;10097815;28;20036;-72
2023/08/26 14:02:34;;;;;;;5.63;1.65;;;24.50;99.90;;;;;;10098229;28;20444;-75
2023/08/26 14:07:24;;;;;;;1.50;1.00;;;24.50;99.90;;;;;;10097763;28;20497;-71
2023/08/26 14:12:15;;;;;;;3.45;1.60;;;24.40;99.90;;;;;;10098189;28;20573;-75
2023/08/26 14:17:05;;;;;;;3.30;1.50;;;24.20;99.90;;;;;;10097536;28;20111;-76
2023/08/26 14:21:57;;;;;;;1.98;1.30;;;24.20;99.90;;;;;;10087303;28;20040;-73
2023/08/26 14:26:48;;;;;;;2.30;1.55;;;24.30;99.90;;;;;;10079018;28;20447;-73
2023/08/26 14:31:39;;;;;;;4.05;1.38;;;24.10;99.90;;;;;;10094017;28;20044;-72
2023/08/26 14:36:29;;;;;;;2.45;1.70;;;24.20;99.90;;;;;;10096948;28;20560;-73
2023/08/26 14:41:20;;;;;;;2.88;1.92;;;24.50;99.90;;;;;;10096594;28;20045;-75
2023/08/26 14:46:11;;;;;;;2.50;1.77;;;24.90;99.90;;;;;;10096068;28;20078;-71
2023/08/26 14:51:02;;;;;;;3.17;1.55;;;25.10;99.90;;;;;;10096051;28;20395;-73
2023/08/26 14:56:02;;;;;;;3.58;1.65;;;25.40;99.90;;;;;;10076894;28;20036;-71
2023/08/26 15:00:56;;;;;;;1.50;1.17;;;25.70;99.90;;;;;;10088712;28;20025;-73
2023/08/26 15:05:58;;;;;;;4.00;3.13;;;26.00;99.90;;;;;;10092555;28;20037;-72
2023/08/26 15:10:48;;;;;;;1.77;1.27;;;26.20;99.90;;;;;;10095907;28;20223;-71
2023/08/26 15:15:39;;;;;;;3.03;1.80;;;25.80;99.90;;;;;;10095739;28;20218;-76
2023/08/26 15:20:30;;;;;;;2.17;1.38;;;25.50;99.90;;;;;;10095424;28;20108;-72
2023/08/26 15:25:21;;;;;;;3.90;1.70;;;25.20;99.90;;;;;;10095758;28;20479;-72
2023/08/26 15:30:11;;;;;;;1.48;1.20;;;25.20;99.90;;;;;;10092362;28;20017;-74
2023/08/26 15:35:03;;;;;;;3.35;1.85;;;25.10;99.90;;;;;;10102169;28;20033;-72
2023/08/26 15:39:53;;;;;;;2.30;1.60;;;25.10;99.90;;;;;;10102975;28;20214;-73
2023/08/26 15:44:44;;;;;;;2.05;1.35;;;25.00;99.90;;;;;;10097423;28;20037;-74
2023/08/26 15:49:35;;;;;;;2.17;1.55;;;25.00;99.90;;;;;;10102555;28;20021;-72
2023/08/26 15:54:25;;;;;;;3.28;1.52;;;24.90;99.90;;;;;;10101703;28;20125;-75
2023/08/26 15:59:16;;;;;;;2.95;1.67;;;24.90;99.90;;;;;;10102006;28;20487;-72
2023/08/26 16:04:06;;;;;;;2.88;1.80;;;24.80;99.90;;;;;;10101553;28;20064;-73
2023/08/26 16:08:57;;;;;;;5.30;1.95;;;24.80;99.90;;;;;;10101621;28;20145;-74
2023/08/26 16:13:48;;;;;;;2.92;1.70;;;24.70;99.90;;;;;;10101659;28;20533;-72
2023/08/26 16:18:38;;;;;;;2.28;1.50;;;24.60;99.90;;;;;;10101859;28;20148;-72
2023/08/26 16:23:30;;;;;;;4.22;1.92;;;24.60;99.90;;;;;;10101703;28;20048;-71
2023/08/26 16:28:21;;;;;;;4.82;2.38;;;24.70;99.90;;;;;;10088796;28;20510;-74
2023/08/26 16:33:11;;;;;;;3.22;2.15;;;24.70;99.90;;;;;;10098446;28;20029;-72
2023/08/26 16:38:03;;;;;;;3.42;2.30;;;24.70;99.90;;;;;;10100862;28;20029;-73
2023/08/26 16:42:54;;;;;;;3.75;1.83;;;24.60;99.90;;;;;;10100308;28;20033;-73
2023/08/26 16:47:44;;;;;;;3.80;2.45;;;24.60;99.90;;;;;;10082571;28;20039;-74
2023/08/26 16:52:35;;;;;;;3.35;2.15;;;24.50;99.90;;;;;;10100021;28;20384;-74
2023/08/26 16:57:25;;;;;;;2.70;1.90;;;24.60;99.90;;;;;;10099832;28;20043;-73
2023/08/26 17:02:17;;;;;;;3.67;2.15;;;24.60;99.90;;;;;;10081632;28;20255;-72
2023/08/26 17:07:07;;;;;;;4.28;2.88;;;24.60;99.90;;;;;;10099873;28;20161;-75
2023/08/26 17:11:58;;;;;;;3.47;2.10;;;24.70;99.90;;;;;;10094757;28;20049;-75
2023/08/26 17:16:49;;;;;;;3.00;1.88;;;24.80;99.90;;;;;;10099673;28;20032;-75
2023/08/26 17:21:39;;;;;;;3.03;1.85;;;24.60;99.90;;;;;;10081358;28;20045;-72
2023/08/26 17:26:30;;;;;;;4.45;1.55;;;24.60;99.90;;;;;;10099876;28;20024;-76
2023/08/26 17:31:20;;;;;;;2.42;1.55;;;24.60;99.90;;;;;;10096645;28;20063;-77
2023/08/26 17:36:11;;;;;;;3.60;1.70;;;24.50;99.90;;;;;;10098403;28;20475;-72
2023/08/26 17:41:02;;;;;;;2.75;1.70;;;24.30;99.90;;;;;;10098778;28;20021;-71
2023/08/26 17:45:52;;;;;;;3.08;2.00;;;24.30;99.90;;;;;;10097932;28;20021;-73
2023/08/26 17:50:48;;;;;;;7.03;2.35;;;24.20;99.90;;;;;;10090831;28;20507;-68
2023/08/26 17:55:38;;;;;;;4.65;2.05;;;24.20;99.90;;;;;;10083763;28;20489;-71
2023/08/26 18:00:29;;;;;;;6.80;1.92;;;24.10;99.90;;;;;;10097801;28;20029;-71
2023/08/26 18:05:20;;;;;;;4.30;2.15;;;24.00;99.90;;;;;;10097914;28;20037;-70
2023/08/26 18:10:11;;;;;;;5.50;1.90;;;24.00;99.90;;;;;;10096703;28;20104;-70
2023/08/26 18:15:02;;;;;;;3.20;1.65;;;24.00;99.90;;;;;;10079307;28;20057;-71
2023/08/26 18:19:53;;;;;;;4.22;2.20;;;24.00;99.90;;;;;;10096652;28;20033;-70
2023/08/26 18:24:44;;;;;;;3.05;1.67;;;23.90;99.90;;;;;;10096796;28;20044;-71
2023/08/26 18:29:37;;;;;;;2.97;1.75;;;23.80;99.90;;;;;;10078104;28;20025;-72
2023/08/26 18:34:28;;;;;;;5.15;2.45;;;23.70;99.90;;;;;;10094243;28;20036;-71
2023/08/26 18:39:19;;;;;;;6.00;2.92;;;23.70;99.90;;;;;;10096791;28;20479;-73
2023/08/26 18:44:10;;;;;;;4.80;2.33;;;23.70;99.90;;;;;;10095971;28;20047;-73
2023/08/26 18:49:00;;;;;;;4.70;2.97;;;23.60;99.90;;;;;;10091606;28;20492;-72
2023/08/26 18:53:51;;;;;;;5.30;1.95;;;23.60;99.90;;;;;;10070407;28;20044;-73
2023/08/26 18:58:42;;;;;;;4.18;1.95;;;23.60;99.90;;;;;;10081719;28;20021;-74
2023/08/26 19:03:36;;;;;;;4.70;1.80;;;23.50;99.90;;;;;;10075879;28;20114;-73
2023/08/26 19:08:28;;;;;;;3.67;1.80;;;23.50;99.90;;;;;;10074874;28;20021;-72
2023/08/26 19:13:19;;;;;;;6.07;2.40;;;23.50;99.90;;;;;;10083117;28;20083;-72
2023/08/26 19:18:10;;;;;;;5.47;2.25;;;23.40;99.90;;;;;;10074875;28;20036;-73
2023/08/26 19:23:01;;;;;;;5.90;2.33;;;23.40;99.90;;;;;;10087160;28;20439;-73
2023/08/26 19:27:56;;;;;;;4.40;1.98;;;23.40;99.90;;;;;;10093618;28;20335;-71
2023/08/26 19:32:49;;;;;;;5.22;1.80;;;23.40;99.90;;;;;;10071653;28;20359;-74
2023/08/26 19:37:40;;;;;;;4.65;2.00;;;23.30;99.90;;;;;;10089698;28;20029;-72
2023/08/26 19:42:30;;;;;;;3.25;1.98;;;23.30;99.90;;;;;;10069913;28;20025;-71
2023/08/26 19:47:22;;;;;;;3.72;1.98;;;23.30;99.90;;;;;;10061277;28;20098;-73
2023/08/26 19:52:13;;;;;;;3.40;1.73;;;23.20;99.90;;;;;;10091902;28;20021;-73
2023/08/26 19:57:08;;;;;;;4.20;2.15;;;23.20;99.90;;;;;;10083021;28;20026;-74
2023/08/26 20:02:02;;;;;;;3.97;2.38;;;23.20;99.90;;;;;;10065592;28;20036;-75
2023/08/26 20:06:56;;;;;;;5.82;2.85;;;23.20;99.90;;;;;;10083532;28;20024;-76
2023/08/26 20:11:46;;;;;;;3.87;3.20;;;23.00;99.90;;;;;;10083076;28;20050;-76
2023/08/26 20:16:37;;;;;;;3.53;1.98;;;22.90;99.90;;;;;;10089864;28;20480;-77
2023/08/26 20:21:28;;;;;;;4.85;2.55;;;22.90;99.90;;;;;;10087523;28;20096;-70
2023/08/26 20:26:27;;;;;;;6.50;2.17;;;23.10;99.90;;;;;;10084213;28;20819;-70
2023/08/26 20:31:18;;;;;;;3.58;2.50;;;23.10;99.90;;;;;;10098880;28;20526;-69
2023/08/26 20:36:12;;;;;;;3.65;1.98;;;23.10;99.90;;;;;;10082794;28;20565;-71
2023/08/26 20:41:06;;;;;;;3.03;2.30;;;23.00;99.90;;;;;;10094181;28;20036;-70
2023/08/26 20:45:57;;;;;;;2.97;1.90;;;23.00;99.90;;;;;;10100708;28;20052;-71
2023/08/26 20:50:48;;;;;;;2.80;2.13;;;22.80;99.90;;;;;;10101117;28;20501;-70
2023/08/26 20:55:38;;;;;;;4.15;1.92;;;22.80;99.90;;;;;;10100782;28;20021;-70
2023/08/26 21:00:29;;;;;;;7.18;2.88;;;22.70;99.90;;;;;;10100278;28;20494;-71
2023/08/26 21:05:20;;;;;;;4.53;1.90;;;22.80;99.90;;;;;;10100080;28;20472;-70
2023/08/26 21:10:11;;;;;;;5.40;2.70;;;22.70;99.90;;;;;;10100708;28;20025;-70
2023/08/26 21:15:08;;;;;;;5.25;2.28;;;22.50;99.90;;;;;;10100440;28;20049;-70
2023/08/26 21:19:59;;;;;;;4.47;2.85;;;22.60;99.90;;;;;;10100730;28;20025;-70
2023/08/26 21:24:52;;;;;;;3.13;2.30;;;22.80;99.90;;;;;;10081766;28;20029;-70
2023/08/26 21:29:43;;;;;;;1.95;1.50;;;22.70;99.90;;;;;;10097031;28;20036;-70
2023/08/26 21:34:34;;;;;;;3.85;2.22;;;22.60;99.90;;;;;;10096942;28;20035;-69
2023/08/26 21:39:24;;;;;;;2.75;1.50;;;22.50;99.90;;;;;;10098340;28;20523;-69
2023/08/26 21:44:18;;;;;;;4.30;1.88;;;22.40;99.90;;;;;;10099004;28;20028;-70
2023/08/26 21:49:08;;;;;;;3.72;1.73;;;22.30;99.90;;;;;;10097859;28;20091;-70
2023/08/26 21:53:59;;;;;;;5.75;1.80;;;22.30;99.90;;;;;;10098133;28;20556;-69
2023/08/26 21:58:49;;;;;;;4.35;1.50;;;22.40;99.90;;;;;;10097387;28;20062;-71
2023/08/26 22:03:40;;;;;;;2.90;1.70;;;22.30;99.90;;;;;;10096543;28;20450;-70
2023/08/26 22:08:31;;;;;;;5.57;2.47;;;22.30;99.90;;;;;;10097622;28;20025;-69
2023/08/26 22:13:21;;;;;;;2.47;2.10;;;22.50;99.90;;;;;;10079710;28;20561;-71
2023/08/26 22:18:13;;;;;;;3.50;1.73;;;22.50;99.90;;;;;;10097364;28;20021;-70
2023/08/26 22:23:05;;;;;;;4.57;2.30;;;22.60;99.90;;;;;;10079543;28;20033;-70
2023/08/26 22:27:55;;;;;;;3.83;1.70;;;22.50;99.90;;;;;;10078848;28;20503;-70
2023/08/26 22:32:49;;;;;;;3.55;2.00;;;22.40;99.90;;;;;;10094609;28;20123;-70
2023/08/26 22:37:40;;;;;;;4.40;2.20;;;22.30;99.90;;;;;;10096467;28;20080;-70
2023/08/26 22:42:34;;;;;;;3.90;1.85;;;22.30;99.90;;;;;;10096325;28;20039;-70
2023/08/26 22:47:28;;;;;;;3.43;1.73;;;22.40;99.90;;;;;;10082206;28;20454;-70
2023/08/26 22:52:19;;;;;;;3.10;2.03;;;22.40;99.90;;;;;;10078436;28;20479;-71
2023/08/26 22:57:10;;;;;;;3.90;1.88;;;22.40;99.90;;;;;;10095727;28;20096;-70
2023/08/26 23:02:02;;;;;;;4.20;2.25;;;22.40;99.90;;;;;;10095291;28;20517;-70
2023/08/26 23:06:55;;;;;;;3.38;2.15;;;22.20;99.90;;;;;;10077546;28;20491;-70
2023/08/26 23:11:46;;;;;;;2.45;1.88;;;22.30;99.90;;;;;;10095167;28;20548;-69
2023/08/26 23:16:36;;;;;;;2.72;1.90;;;22.30;99.90;;;;;;10096491;28;20035;-70
2023/08/26 23:21:27;;;;;;;3.58;2.00;;;22.10;99.90;;;;;;10096058;28;20086;-69
2023/08/26 23:26:18;;;;;;;2.83;2.30;;;22.20;99.90;;;;;;10094981;28;20040;-70
2023/08/26 23:31:08;;;;;;;4.97;2.40;;;22.20;99.90;;;;;;10101501;28;20017;-70
2023/08/26 23:35:59;;;;;;;3.40;2.10;;;22.20;99.90;;;;;;10095352;28;20090;-69
2023/08/26 23:40:50;;;;;;;4.50;1.73;;;22.20;99.90;;;;;;10095492;28;20583;-71
2023/08/26 23:45:41;;;;;;;3.88;2.20;;;22.20;99.90;;;;;;10095016;28;20040;-71
2023/08/26 23:50:31;;;;;;;5.65;1.85;;;22.10;99.90;;;;;;10095632;28;20033;-70
2023/08/26 23:55:22;;;;;;;2.85;1.63;;;22.10;99.90;;;;;;10082232;28;20475;-71
